North Billerica, Massachusetts
Current Conditions -  °F | °C
As of 7:56 AM on Sunday 21 Dec 2014 (Local Time) from KBED Reporting Station
Overcast Overcast  
Wind Chill: 21°   Ceiling: 1200
Heat Index: 28°   Visibility: 10mi
Dew Point: 23°   Wind: 7mph
Humidity: 81%   Direction: 360°N
Pressure: 30.31"   Gusts: NA
Location:  42.58°N, 71.28°W
Report Text: KBED 211256Z AUTO 36006KT 10SM OVC012 M02/M05 A3031 RMK AO2 SLP282 T10221050 TSNO
Loading
Personal Weather Stations






























Interactive Weather Map New forecast layout! Learn more

10-Day Weather Forecast

Advertisements
Track Severe Weather on mobile